Time;durP1;ratioP1;P1;durP2;ratioP2;P2;SDS_P1;SDS_P2;PMS_P1;PMS_P2;Temp;Humidity;BMP_temperature;BMP_pressure;BME280_temperature;BME280_humidity;BME280_pressure;Samples;Min_cycle;Max_cycle;Signal;HPM_P1;HPM_P2
2024/01/07 00:00:38;;;;;;;5.60;4.80;;;;;;;-0.88;100.00;95679.34;108477;1281;23839;-85
2024/01/07 00:03:25;;;;;;;6.90;6.20;;;;;;;-0.91;100.00;95678.88;108315;1279;138696;-85
2024/01/07 00:05:51;;;;;;;8.30;5.90;;;;;;;-0.90;100.00;95681.38;108365;1271;22520;-85
2024/01/07 00:08:18;;;;;;;7.60;6.00;;;;;;;-0.93;100.00;95677.54;108346;1278;138701;-85
2024/01/07 00:10:45;;;;;;;7.80;6.20;;;;;;;-0.97;100.00;95679.40;108313;1282;22524;-85
2024/01/07 00:13:12;;;;;;;7.30;6.60;;;;;;;-0.98;100.00;95678.00;108392;1271;22621;-85
2024/01/07 00:15:39;;;;;;;7.30;6.00;;;;;;;-1.03;100.00;95684.83;108423;1282;136755;-84
2024/01/07 00:18:06;;;;;;;7.40;6.30;;;;;;;-1.06;100.00;95675.94;108697;1282;22558;-85
2024/01/07 00:20:33;;;;;;;7.50;6.20;;;;;;;-1.09;100.00;95682.98;108740;1273;136507;-85
2024/01/07 00:22:59;;;;;;;8.10;6.60;;;;;;;-1.11;100.00;95685.16;108607;1277;23125;-85
2024/01/07 00:25:26;;;;;;;8.20;6.00;;;;;;;-1.11;100.00;95685.16;108641;1283;23486;-85
2024/01/07 00:27:55;;;;;;;8.30;6.20;;;;;;;-1.11;100.00;95687.20;108605;1275;137147;-85
2024/01/07 00:30:22;;;;;;;8.10;6.00;;;;;;;-1.12;100.00;95690.41;108687;1283;22641;-85
2024/01/07 00:32:51;;;;;;;8.50;6.40;;;;;;;-1.19;100.00;95692.77;108629;1284;138235;-85
2024/01/07 00:35:18;;;;;;;7.30;5.40;;;;;;;-1.21;100.00;95693.49;108689;1283;23142;-86
2024/01/07 00:37:45;;;;;;;6.70;6.00;;;;;;;-1.26;100.00;95694.92;108691;1274;22558;-85
2024/01/07 00:40:12;;;;;;;8.80;5.60;;;;;;;-1.27;100.00;95692.61;108159;1274;137799;-84
2024/01/07 00:42:38;;;;;;;8.90;6.30;;;;;;;-1.27;100.00;95696.16;108377;1283;22542;-85
2024/01/07 00:45:06;;;;;;;8.40;6.10;;;;;;;-1.26;100.00;95695.60;108240;1283;138243;-84
2024/01/07 00:47:32;;;;;;;5.90;5.30;;;;;;;-1.28;100.00;95693.91;108308;1281;22523;-85
2024/01/07 00:49:59;;;;;;;7.20;5.80;;;;;;;-1.29;100.00;95700.42;108320;1283;22533;-87
2024/01/07 00:52:26;;;;;;;6.10;5.40;;;;;;;-1.30;100.00;95703.71;108231;1262;138135;-87
2024/01/07 00:54:52;;;;;;;7.00;5.50;;;;;;;-1.29;100.00;95705.03;108377;1269;22530;-87
2024/01/07 00:57:19;;;;;;;7.10;6.40;;;;;;;-1.30;100.00;95705.91;108212;1280;138395;-87
2024/01/07 00:59:45;;;;;;;5.90;5.30;;;;;;;-1.30;100.00;95703.41;108436;1280;22566;-86
2024/01/07 01:02:12;;;;;;;6.30;5.60;;;;;;;-1.32;100.00;95708.96;108282;1281;137619;-85
2024/01/07 01:04:39;;;;;;;7.50;6.10;;;;;;;-1.34;100.00;95706.43;108354;1281;23296;-87
2024/01/07 01:07:07;;;;;;;9.40;7.70;;;;;;;-1.38;100.00;95712.88;109023;1276;22545;-86
2024/01/07 01:09:35;;;;;;;8.60;6.90;;;;;;;-1.41;100.00;95712.97;108219;1281;137560;-87
2024/01/07 01:12:03;;;;;;;10.00;7.50;;;;;;;-1.44;100.00;95713.79;108374;1281;22540;-87
2024/01/07 01:14:30;;;;;;;9.20;7.10;;;;;;;-1.45;100.00;95719.12;108375;1281;138516;-86
2024/01/07 01:16:57;;;;;;;7.50;6.60;;;;;;;-1.46;100.00;95719.86;108401;1281;22546;-87
2024/01/07 01:19:24;;;;;;;6.70;5.80;;;;;;;-1.52;100.00;95719.41;108374;1281;22527;-87
2024/01/07 01:21:50;;;;;;;9.00;6.50;;;;;;;-1.53;100.00;95721.20;108221;1281;138146;-87
2024/01/07 01:24:17;;;;;;;7.90;6.60;;;;;;;-1.55;100.00;95717.70;108384;1275;22576;-87
2024/01/07 01:26:44;;;;;;;8.30;6.40;;;;;;;-1.58;100.00;95723.15;108354;1276;138472;-87
2024/01/07 01:29:10;;;;;;;7.20;6.30;;;;;;;-1.61;100.00;95722.37;108337;1281;23810;-87
2024/01/07 01:31:37;;;;;;;8.10;6.30;;;;;;;-1.62;100.00;95719.75;108473;1277;22586;-86
2024/01/07 01:34:04;;;;;;;9.10;6.60;;;;;;;-1.66;100.00;95722.95;108413;1282;138859;-87
2024/01/07 01:36:33;;;;;;;7.70;6.60;;;;;;;-1.71;100.00;95724.21;108435;1278;22570;-87
2024/01/07 01:39:00;;;;;;;6.70;5.90;;;;;;;-1.81;100.00;95725.84;108316;1281;137531;-87
2024/01/07 01:41:27;;;;;;;8.70;6.30;;;;;;;-1.84;100.00;95726.62;108470;1281;22649;-86
2024/01/07 01:43:57;;;;;;;6.80;6.00;;;;;;;-1.85;100.00;95725.30;108447;1275;22525;-86
2024/01/07 01:46:24;;;;;;;7.50;6.10;;;;;;;-1.86;100.00;95726.27;108227;1282;138310;-87
2024/01/07 01:48:51;;;;;;;7.80;5.80;;;;;;;-1.87;100.00;95724.98;108341;1277;22556;-86
2024/01/07 01:51:18;;;;;;;7.90;6.70;;;;;;;-1.89;100.00;95725.30;108236;1282;138190;-87
2024/01/07 01:53:45;;;;;;;7.00;6.10;;;;;;;-1.92;100.00;95727.21;108461;1281;22710;-86
2024/01/07 01:56:12;;;;;;;7.50;6.50;;;;;;;-1.90;100.00;95724.09;108372;1281;22522;-87
2024/01/07 01:58:39;;;;;;;7.50;6.70;;;;;;;-1.94;100.00;95724.35;108291;1281;22557;-87
2024/01/07 02:01:06;;;;;;;7.20;6.50;;;;;;;-2.01;100.00;95724.23;108418;1276;24888;-87
2024/01/07 02:03:33;;;;;;;9.30;6.50;;;;;;;-2.04;100.00;95724.98;108289;1277;138723;-87
2024/01/07 02:05:59;;;;;;;8.10;6.10;;;;;;;-2.07;100.00;95728.63;108347;1282;22541;-86
2024/01/07 02:08:26;;;;;;;8.60;6.00;;;;;;;-2.11;100.00;95727.40;108289;1281;138884;-86
2024/01/07 02:10:54;;;;;;;7.30;6.50;;;;;;;-2.14;100.00;95727.98;108435;1278;23187;-86
2024/01/07 02:13:22;;;;;;;9.10;7.00;;;;;;;-2.16;100.00;95729.14;108453;1278;22524;-85
2024/01/07 02:15:49;;;;;;;8.60;6.40;;;;;;;-2.17;100.00;95726.03;108596;1283;138989;-86
2024/01/07 02:18:16;;;;;;;8.70;6.80;;;;;;;-2.19;100.00;95723.98;108912;1282;22575;-85
2024/01/07 02:20:43;;;;;;;10.00;7.40;;;;;;;-2.26;100.00;95723.86;108697;1282;137330;-85
2024/01/07 02:23:10;;;;;;;8.30;6.60;;;;;;;-2.30;100.00;95722.42;108729;1274;22520;-85
2024/01/07 02:25:37;;;;;;;8.40;7.50;;;;;;;-2.32;100.00;95723.28;108694;1283;22761;-85
2024/01/07 02:28:04;;;;;;;6.30;5.70;;;;;;;-2.33;100.00;95724.89;108308;1283;138766;-84
2024/01/07 02:30:31;;;;;;;9.70;6.50;;;;;;;-2.34;100.00;95727.66;109542;1273;24253;-85
2024/01/07 02:33:02;;;;;;;8.80;7.20;;;;;;;-2.39;100.00;95727.39;109673;1281;138323;-85
2024/01/07 02:35:28;;;;;;;6.80;5.80;;;;;;;-2.41;100.00;95723.64;109846;1277;23235;-85
2024/01/07 02:37:55;;;;;;;8.90;6.50;;;;;;;-2.40;100.00;95730.16;109798;1271;22163;-85
2024/01/07 02:40:22;;;;;;;7.20;6.50;;;;;;;-2.39;100.00;95725.05;109841;1279;138127;-85
2024/01/07 02:42:48;;;;;;;8.50;6.80;;;;;;;-2.42;100.00;95729.83;109882;1277;22176;-88
2024/01/07 02:45:15;;;;;;;9.30;6.70;;;;;;;-2.44;100.00;95725.87;108404;1282;138358;-87
2024/01/07 02:47:42;;;;;;;8.00;7.20;;;;;;;-2.44;100.00;95727.73;108469;1282;22658;-87
2024/01/07 02:50:09;;;;;;;8.70;6.60;;;;;;;-2.44;100.00;95729.10;108429;1275;24262;-86
2024/01/07 02:52:35;;;;;;;7.50;6.30;;;;;;;-2.46;100.00;95725.71;108211;1283;138060;-86
2024/01/07 02:55:02;;;;;;;7.70;6.40;;;;;;;-2.50;100.00;95727.08;108331;1282;25442;-86
2024/01/07 02:57:28;;;;;;;8.60;7.10;;;;;;;-2.54;100.00;95730.36;108204;1282;138869;-86
2024/01/07 02:59:55;;;;;;;7.70;6.20;;;;;;;-2.56;100.00;95729.19;108287;1280;22545;-86
2024/01/07 03:02:22;;;;;;;8.90;6.50;;;;;;;-2.60;100.00;95729.36;108250;1278;138295;-87
2024/01/07 03:04:48;;;;;;;9.00;6.80;;;;;;;-2.65;100.00;95733.25;108394;1282;23230;-87
2024/01/07 03:07:15;;;;;;;7.00;6.30;;;;;;;-2.66;100.00;95734.70;108392;1284;25443;-85
2024/01/07 03:09:42;;;;;;;7.20;6.30;;;;;;;-2.67;100.00;95735.48;108678;1283;137663;-85
2024/01/07 03:12:10;;;;;;;9.00;6.60;;;;;;;-2.70;100.00;95738.09;108721;1281;24244;-85
2024/01/07 03:14:37;;;;;;;7.50;6.60;;;;;;;-2.72;100.00;95742.27;108565;1281;137213;-85
2024/01/07 03:17:04;;;;;;;6.20;5.50;;;;;;;-2.74;100.00;95743.78;108736;1281;22620;-85
2024/01/07 03:19:30;;;;;;;7.20;5.80;;;;;;;-2.74;100.00;95740.77;108370;1278;24118;-86
2024/01/07 03:21:57;;;;;;;8.50;6.60;;;;;;;-2.74;100.00;95739.90;108241;1283;138200;-86
2024/01/07 03:24:24;;;;;;;8.90;7.40;;;;;;;-2.77;100.00;95739.76;108315;1279;22523;-87
2024/01/07 03:26:51;;;;;;;9.30;7.10;;;;;;;-2.81;100.00;95739.22;108116;1283;138602;-86
2024/01/07 03:29:17;;;;;;;8.10;6.10;;;;;;;-2.85;100.00;95737.67;109143;1276;22539;-86
2024/01/07 03:31:44;;;;;;;8.80;6.10;;;;;;;-2.87;100.00;95738.16;108339;1282;22527;-87
2024/01/07 03:34:11;;;;;;;7.70;6.00;;;;;;;-2.89;100.00;95734.61;108227;1275;138287;-86
2024/01/07 03:36:37;;;;;;;8.80;6.60;;;;;;;-2.89;100.00;95736.80;108322;1274;22535;-86
2024/01/07 03:39:04;;;;;;;6.70;6.00;;;;;;;-2.88;100.00;95735.06;108231;1275;138319;-87
2024/01/07 03:41:31;;;;;;;6.60;5.80;;;;;;;-2.87;100.00;95737.01;108311;1275;25480;-86
2024/01/07 03:43:58;;;;;;;7.30;5.20;;;;;;;-2.83;100.00;95737.05;108321;1282;25431;-86
2024/01/07 03:46:24;;;;;;;6.50;5.80;;;;;;;-2.82;100.00;95743.70;108217;1278;138681;-87
2024/01/07 03:48:51;;;;;;;6.10;5.50;;;;;;;-2.80;100.00;95743.08;108322;1281;22534;-86
2024/01/07 03:51:18;;;;;;;8.20;6.30;;;;;;;-2.82;100.00;95739.83;108258;1282;137924;-86
2024/01/07 03:53:44;;;;;;;6.60;5.20;;;;;;;-2.84;100.00;95740.50;108447;1281;22587;-86
2024/01/07 03:56:11;;;;;;;5.80;5.00;;;;;;;-2.87;100.00;95749.17;108308;1282;24878;-86
2024/01/07 03:58:38;;;;;;;6.10;5.20;;;;;;;-2.92;100.00;95747.69;108358;1282;22550;-86
2024/01/07 04:01:04;;;;;;;5.80;5.20;;;;;;;-2.93;100.00;95753.89;108348;1278;22546;-87
2024/01/07 04:03:31;;;;;;;6.90;4.90;;;;;;;-2.94;100.00;95752.22;108229;1275;138178;-86
2024/01/07 04:05:58;;;;;;;6.90;6.20;;;;;;;-2.90;100.00;95751.96;108320;1278;24456;-84
2024/01/07 04:08:25;;;;;;;7.00;5.40;;;;;;;-2.89;100.00;95750.16;108472;1263;138415;-85
2024/01/07 04:10:52;;;;;;;5.30;4.80;;;;;;;-2.89;100.00;95752.42;108889;1282;22646;-85
2024/01/07 04:13:20;;;;;;;8.30;6.70;;;;;;;-2.92;100.00;95754.80;108828;1281;22576;-85
2024/01/07 04:15:47;;;;;;;8.90;7.80;;;;;;;-2.96;100.00;95754.44;108276;1281;138167;-85
2024/01/07 04:18:14;;;;;;;7.90;6.30;;;;;;;-2.97;100.00;95756.40;108631;1273;22621;-85
2024/01/07 04:20:40;;;;;;;7.80;6.20;;;;;;;-2.97;100.00;95753.33;108740;1275;137016;-85
2024/01/07 04:23:07;;;;;;;7.10;6.30;;;;;;;-2.97;100.00;95753.84;108908;1283;22489;-85
2024/01/07 04:25:34;;;;;;;11.60;8.80;;;;;;;-2.95;100.00;95756.93;108868;1283;26632;-85
2024/01/07 04:28:01;;;;;;;8.90;7.30;;;;;;;-2.94;100.00;95762.60;108836;1283;137460;-85
2024/01/07 04:30:28;;;;;;;12.70;9.20;;;;;;;-2.91;100.00;95765.95;109002;1283;22573;-85
2024/01/07 04:32:54;;;;;;;9.20;8.10;;;;;;;-2.92;100.00;95766.34;108597;1281;138700;-85
2024/01/07 04:35:21;;;;;;;9.20;8.20;;;;;;;-2.94;100.00;95773.30;108236;1284;22523;-85
2024/01/07 04:37:48;;;;;;;9.80;7.70;;;;;;;-3.01;100.00;95770.22;108432;1278;22915;-85
2024/01/07 04:40:15;;;;;;;10.60;8.60;;;;;;;-3.07;100.00;95774.76;108178;1283;137777;-85
2024/01/07 04:42:42;;;;;;;10.20;8.80;;;;;;;-3.11;100.00;95773.95;108533;1282;22566;-85
2024/01/07 04:45:09;;;;;;;10.40;8.70;;;;;;;-3.14;100.00;95782.71;108772;1283;137287;-86
2024/01/07 04:47:36;;;;;;;8.90;7.90;;;;;;;-3.13;100.00;95780.73;108970;1281;25446;-85
2024/01/07 04:50:06;;;;;;;9.70;8.70;;;;;;;-3.13;100.00;95785.16;108948;1266;22578;-85
2024/01/07 04:52:34;;;;;;;11.80;8.90;;;;;;;-3.13;100.00;95782.30;108906;1282;137039;-86
2024/01/07 04:55:01;;;;;;;9.20;7.20;;;;;;;-3.16;100.00;95790.85;109088;1278;22567;-86
2024/01/07 04:57:28;;;;;;;10.50;7.90;;;;;;;-3.19;100.00;95791.02;108933;1282;138179;-85
2024/01/07 04:59:55;;;;;;;8.70;7.70;;;;;;;-3.20;100.00;95795.35;109092;1282;22494;-86
2024/01/07 05:02:23;;;;;;;11.00;8.80;;;;;;;-3.20;100.00;95793.96;108837;1268;138888;-86
2024/01/07 05:04:50;;;;;;;8.10;7.00;;;;;;;-3.21;100.00;95797.48;109071;1275;22535;-86
2024/01/07 05:07:17;;;;;;;9.70;7.70;;;;;;;-3.25;100.00;95800.50;108956;1282;23073;-85
2024/01/07 05:09:45;;;;;;;9.40;7.50;;;;;;;-3.29;100.00;95807.51;108973;1275;138224;-86
2024/01/07 05:12:12;;;;;;;8.50;7.30;;;;;;;-3.32;100.00;95815.17;109080;1279;22534;-86
2024/01/07 05:14:39;;;;;;;10.00;7.50;;;;;;;-3.36;100.00;95817.04;109021;1276;136732;-85
2024/01/07 05:17:06;;;;;;;10.60;8.20;;;;;;;-3.40;100.00;95815.60;109006;1281;22595;-86
2024/01/07 05:19:32;;;;;;;9.10;7.20;;;;;;;-3.45;100.00;95815.79;108331;1281;22562;-86
2024/01/07 05:21:59;;;;;;;8.10;7.00;;;;;;;-3.47;100.00;95816.24;108211;1282;138674;-86
2024/01/07 05:24:26;;;;;;;9.00;7.10;;;;;;;-3.44;100.00;95815.20;108364;1281;22585;-86
2024/01/07 05:26:53;;;;;;;9.50;7.50;;;;;;;-3.41;100.00;95816.73;108220;1283;138460;-86
2024/01/07 05:29:19;;;;;;;9.00;8.10;;;;;;;-3.44;100.00;95816.70;108378;1281;24173;-86
2024/01/07 05:31:46;;;;;;;13.10;8.60;;;;;;;-3.49;100.00;95823.54;108443;1283;23819;-85
2024/01/07 05:34:12;;;;;;;7.70;6.90;;;;;;;-3.55;100.00;95821.45;108232;1282;137644;-85
2024/01/07 05:36:39;;;;;;;10.20;7.60;;;;;;;-3.58;100.00;95822.98;108320;1274;22588;-87
2024/01/07 05:39:06;;;;;;;9.60;8.20;;;;;;;-3.64;100.00;95826.25;108241;1281;138129;-86
2024/01/07 05:41:33;;;;;;;10.20;8.40;;;;;;;-3.66;100.00;95821.00;108204;1277;22527;-86
2024/01/07 05:43:59;;;;;;;11.30;7.50;;;;;;;-3.66;100.00;95826.56;108362;1281;23096;-86
2024/01/07 05:46:26;;;;;;;7.90;6.90;;;;;;;-3.66;100.00;95831.52;108284;1282;139256;-86
2024/01/07 05:48:53;;;;;;;6.60;5.80;;;;;;;-3.69;100.00;95830.02;108465;1281;22563;-86
2024/01/07 05:51:19;;;;;;;7.20;6.50;;;;;;;-3.72;100.00;95832.29;108266;1283;137817;-86
2024/01/07 05:53:46;;;;;;;8.40;6.60;;;;;;;-3.76;100.00;95832.58;108364;1281;22531;-86
2024/01/07 05:56:13;;;;;;;8.70;7.40;;;;;;;-3.78;100.00;95835.11;108364;1282;22687;-86
2024/01/07 05:58:39;;;;;;;10.20;7.30;;;;;;;-3.81;100.00;95842.05;108367;1281;22943;-86
2024/01/07 06:01:08;;;;;;;10.70;8.10;;;;;;;-3.79;100.00;95839.88;108333;1278;22574;-86
2024/01/07 06:03:34;;;;;;;10.00;7.50;;;;;;;-3.78;100.00;95837.41;108278;1281;138584;-86
2024/01/07 06:06:01;;;;;;;10.70;7.70;;;;;;;-3.76;100.00;95842.38;108438;1281;22528;-85
2024/01/07 06:08:28;;;;;;;9.40;8.40;;;;;;;-3.77;100.00;95845.86;108275;1281;138311;-86
2024/01/07 06:10:58;;;;;;;11.90;8.90;;;;;;;-3.82;100.00;95854.30;108341;1280;22535;-87
2024/01/07 06:13:24;;;;;;;10.20;8.10;;;;;;;-3.87;100.00;95857.75;108727;1282;23174;-85
2024/01/07 06:15:52;;;;;;;11.10;8.70;;;;;;;-3.92;100.00;95861.77;108813;1282;136621;-85
2024/01/07 06:18:19;;;;;;;9.40;8.50;;;;;;;-3.94;100.00;95860.39;108944;1282;22539;-85
2024/01/07 06:20:45;;;;;;;10.70;8.40;;;;;;;-3.95;100.00;95863.34;108363;1283;138692;-85
2024/01/07 06:23:12;;;;;;;9.00;8.00;;;;;;;-3.98;100.00;95865.20;108303;1282;23020;-84
2024/01/07 06:25:39;;;;;;;9.90;8.20;;;;;;;-4.01;100.00;95869.33;108375;1282;22543;-84
2024/01/07 06:28:06;;;;;;;10.30;8.30;;;;;;;-3.99;100.00;95871.93;108331;1280;138692;-85
2024/01/07 06:30:33;;;;;;;9.70;8.30;;;;;;;-3.99;100.00;95874.08;108521;1282;23201;-84
2024/01/07 06:33:00;;;;;;;11.70;8.10;;;;;;;-4.02;100.00;95871.11;108223;1281;137888;-86
2024/01/07 06:35:26;;;;;;;9.00;8.00;;;;;;;-4.06;100.00;95878.80;108311;1278;22520;-86
2024/01/07 06:37:53;;;;;;;11.10;9.30;;;;;;;-4.07;100.00;95880.05;108379;1279;22546;-86
2024/01/07 06:40:20;;;;;;;10.00;8.50;;;;;;;-4.08;100.00;95882.86;108224;1281;138347;-86
2024/01/07 06:42:48;;;;;;;10.60;8.70;;;;;;;-4.13;100.00;95886.70;108333;1281;22554;-86
2024/01/07 06:45:16;;;;;;;11.30;8.90;;;;;;;-4.14;100.00;95885.61;108230;1282;138374;-86
2024/01/07 06:47:43;;;;;;;9.70;8.10;;;;;;;-4.14;100.00;95888.86;108481;1277;22536;-86
2024/01/07 06:50:10;;;;;;;12.00;9.00;;;;;;;-4.12;100.00;95890.70;108352;1281;22533;-86
2024/01/07 06:52:37;;;;;;;9.00;7.00;;;;;;;-4.10;100.00;95895.17;108365;1283;138136;-86
2024/01/07 06:55:03;;;;;;;10.30;9.00;;;;;;;-4.10;100.00;95896.17;108441;1281;25429;-86
2024/01/07 06:57:30;;;;;;;10.10;7.90;;;;;;;-4.15;100.00;95901.08;108235;1274;137955;-85
2024/01/07 06:59:56;;;;;;;8.70;7.80;;;;;;;-4.19;100.00;95898.13;108305;1281;22659;-86
2024/01/07 07:02:24;;;;;;;11.40;8.50;;;;;;;-4.21;100.00;95898.95;108268;1281;137733;-86
2024/01/07 07:04:51;;;;;;;11.20;8.90;;;;;;;-4.22;100.00;95903.08;108367;1281;24246;-85
2024/01/07 07:07:17;;;;;;;11.30;8.60;;;;;;;-4.22;100.00;95903.27;108271;1282;22576;-86
2024/01/07 07:09:45;;;;;;;11.40;8.50;;;;;;;-4.28;100.00;95903.95;108320;1281;138275;-86
2024/01/07 07:12:12;;;;;;;13.60;9.60;;;;;;;-4.27;100.00;95911.86;108383;1281;23687;-86
2024/01/07 07:14:39;;;;;;;10.70;8.80;;;;;;;-4.25;100.00;95915.61;108245;1282;138555;-86
2024/01/07 07:17:05;;;;;;;9.90;8.70;;;;;;;-4.26;100.00;95917.23;108220;1283;23076;-86
2024/01/07 07:19:34;;;;;;;11.50;8.90;;;;;;;-4.30;100.00;95921.48;108434;1280;22528;-86
2024/01/07 07:22:00;;;;;;;9.70;8.70;;;;;;;-4.32;100.00;95922.53;108265;1278;138292;-86
2024/01/07 07:24:27;;;;;;;10.60;8.50;;;;;;;-4.36;100.00;95919.21;108310;1282;22586;-86
2024/01/07 07:26:54;;;;;;;12.70;9.70;;;;;;;-4.37;100.00;95926.60;108222;1283;138447;-86
2024/01/07 07:29:20;;;;;;;13.10;8.90;;;;;;;-4.37;100.00;95927.41;108307;1282;23857;-86
2024/01/07 07:31:47;;;;;;;12.80;9.10;;;;;;;-4.34;100.00;95928.05;108294;1283;22534;-86
2024/01/07 07:34:14;;;;;;;11.40;9.20;;;;;;;-4.35;100.00;95927.77;108212;1279;138897;-86
2024/01/07 07:36:41;;;;;;;10.80;8.80;;;;;;;-4.34;100.00;95932.14;108292;1281;22522;-86
2024/01/07 07:39:09;;;;;;;11.40;8.00;;;;;;;-4.34;100.00;95934.85;108578;1280;136729;-85
2024/01/07 07:41:35;;;;;;;9.00;7.60;;;;;;;-4.34;100.00;95937.21;108093;1282;139144;-85
2024/01/07 07:44:03;;;;;;;12.10;9.70;;;;;;;-4.34;100.00;95939.73;108411;1281;22545;-85
2024/01/07 07:46:30;;;;;;;12.00;10.50;;;;;;;-4.32;100.00;95941.41;108259;1281;139014;-84
2024/01/07 07:49:00;;;;;;;12.30;9.70;;;;;;;-4.27;100.00;95941.42;108949;1273;22574;-85
2024/01/07 07:51:28;;;;;;;14.40;10.20;;;;;;;-4.19;100.00;95938.79;109064;1282;22546;-86
2024/01/07 07:53:54;;;;;;;12.30;8.20;;;;;;;-4.17;100.00;95939.27;108854;1281;137495;-86
2024/01/07 07:56:21;;;;;;;11.40;9.70;;;;;;;-4.10;100.00;95940.33;108746;1282;24271;-86
2024/01/07 07:58:48;;;;;;;12.90;10.30;;;;;;;-4.06;100.00;95941.09;108225;1267;138532;-85
2024/01/07 08:01:16;;;;;;;11.50;8.50;;;;;;;-4.07;100.00;95942.84;108372;1283;22540;-86
2024/01/07 08:03:43;;;;;;;11.60;8.30;;;;;;;-4.09;100.00;95948.19;108199;1283;137943;-86
2024/01/07 08:06:09;;;;;;;12.60;8.90;;;;;;;-4.07;100.00;95951.80;108305;1267;22531;-86
2024/01/07 08:08:36;;;;;;;9.10;7.80;;;;;;;-4.10;100.00;95960.30;108374;1281;23402;-85
2024/01/07 08:11:07;;;;;;;9.20;7.90;;;;;;;-4.12;100.00;95961.11;108225;1282;138405;-85
2024/01/07 08:13:35;;;;;;;11.20;8.80;;;;;;;-4.12;100.00;95963.44;108366;1283;23843;-85
2024/01/07 08:16:03;;;;;;;10.80;9.60;;;;;;;-4.12;100.00;95963.15;109262;1281;138774;-85
2024/01/07 08:18:29;;;;;;;11.50;9.40;;;;;;;-4.11;100.00;95966.64;108353;1281;26417;-84
2024/01/07 08:20:57;;;;;;;10.90;8.10;;;;;;;-4.09;100.00;95967.17;108783;1280;26522;-85
2024/01/07 08:23:25;;;;;;;11.80;9.00;;;;;;;-4.09;100.00;95967.83;108828;1279;137340;-85
2024/01/07 08:25:52;;;;;;;11.70;8.20;;;;;;;-4.08;100.00;95967.58;108940;1282;22587;-86
2024/01/07 08:28:20;;;;;;;12.80;9.70;;;;;;;-4.07;100.00;95969.22;108796;1282;137664;-86
2024/01/07 08:30:47;;;;;;;10.10;7.40;;;;;;;-4.08;100.00;95971.82;108326;1281;22524;-86
2024/01/07 08:33:14;;;;;;;12.30;10.50;;;;;;;-4.10;100.00;95971.61;108337;1279;22556;-86
2024/01/07 08:35:40;;;;;;;13.40;9.00;;;;;;;-4.15;100.00;95977.17;108253;1282;138025;-86
2024/01/07 08:38:07;;;;;;;14.20;10.40;;;;;;;-4.19;100.00;95973.95;108318;1282;23343;-86
2024/01/07 08:40:34;;;;;;;14.40;10.20;;;;;;;-4.22;100.00;95977.19;108175;1282;138521;-85
2024/01/07 08:43:01;;;;;;;14.10;8.60;;;;;;;-4.19;100.00;95980.52;108305;1281;22870;-86
2024/01/07 08:45:28;;;;;;;14.00;9.50;;;;;;;-4.20;100.00;95979.42;109109;1282;22525;-86
2024/01/07 08:47:55;;;;;;;10.30;8.70;;;;;;;-4.19;100.00;95984.62;108103;1283;138395;-86
2024/01/07 08:50:21;;;;;;;9.40;7.60;;;;;;;-4.18;100.00;95985.54;108444;1279;22606;-85
2024/01/07 08:52:48;;;;;;;10.30;8.20;;;;;;;-4.19;100.00;95983.91;108253;1282;138652;-86
2024/01/07 08:55:15;;;;;;;13.50;9.90;;;;;;;-4.21;100.00;95987.41;108293;1281;22569;-86
2024/01/07 08:57:45;;;;;;;11.80;8.70;;;;;;;-4.20;100.00;95988.08;108509;1281;22545;-85
2024/01/07 09:00:12;;;;;;;12.40;9.20;;;;;;;-4.26;100.00;95987.58;108762;1283;22517;-85
2024/01/07 09:02:40;;;;;;;10.00;8.40;;;;;;;-4.29;100.00;95992.67;108455;1283;25341;-86
2024/01/07 09:05:07;;;;;;;12.00;9.30;;;;;;;-4.27;100.00;95992.35;108213;1281;139042;-86
2024/01/07 09:07:33;;;;;;;14.10;8.40;;;;;;;-4.28;100.00;95995.96;108400;1282;23872;-85
2024/01/07 09:10:00;;;;;;;9.70;8.00;;;;;;;-4.27;100.00;95995.41;108283;1281;140023;-86
2024/01/07 09:12:27;;;;;;;11.20;7.70;;;;;;;-4.25;100.00;95993.92;108536;1281;22544;-86
2024/01/07 09:14:53;;;;;;;10.00;7.90;;;;;;;-4.26;100.00;95995.67;108423;1281;23307;-86
2024/01/07 09:17:21;;;;;;;10.00;8.80;;;;;;;-4.25;100.00;95994.09;108317;1277;138144;-86
2024/01/07 09:19:47;;;;;;;12.50;9.80;;;;;;;-4.26;100.00;95994.48;108447;1281;24176;-86
2024/01/07 09:22:14;;;;;;;9.90;8.40;;;;;;;-4.32;100.00;95995.38;108332;1279;138802;-86
2024/01/07 09:24:41;;;;;;;10.50;8.50;;;;;;;-4.35;100.00;95994.95;108442;1280;22584;-86
2024/01/07 09:27:08;;;;;;;13.30;9.30;;;;;;;-4.34;100.00;95995.23;108309;1282;22562;-86
2024/01/07 09:29:35;;;;;;;10.10;8.00;;;;;;;-4.34;100.00;95994.18;108313;1282;139007;-86
2024/01/07 09:32:01;;;;;;;10.90;7.80;;;;;;;-4.33;100.00;96000.35;108378;1282;25516;-86
2024/01/07 09:34:28;;;;;;;13.60;9.50;;;;;;;-4.36;100.00;96003.78;108229;1273;138690;-86
2024/01/07 09:36:55;;;;;;;12.70;9.10;;;;;;;-4.46;100.00;96001.52;108308;1279;22561;-86
2024/01/07 09:39:21;;;;;;;11.50;9.20;;;;;;;-4.52;100.00;96004.15;108323;1278;22758;-86
2024/01/07 09:41:48;;;;;;;12.00;9.10;;;;;;;-4.50;100.00;96003.88;108223;1277;138325;-86
2024/01/07 09:44:14;;;;;;;12.50;10.00;;;;;;;-4.51;100.00;96001.21;108192;1283;22954;-86
2024/01/07 09:46:41;;;;;;;9.80;7.90;;;;;;;-4.46;100.00;96005.98;108188;1283;138717;-86
2024/01/07 09:49:08;;;;;;;12.20;9.60;;;;;;;-4.40;100.00;96006.23;108263;1280;25297;-86
2024/01/07 09:51:38;;;;;;;15.20;9.70;;;;;;;-4.36;100.00;96001.56;108288;1283;24923;-86
2024/01/07 09:54:05;;;;;;;13.80;10.10;;;;;;;-4.35;100.00;95995.63;108236;1280;138145;-86
2024/01/07 09:56:36;;;;;;;15.20;11.00;;;;;;;-4.33;100.00;95997.16;108260;1282;22586;-86
2024/01/07 09:59:03;;;;;;;12.10;10.20;;;;;;;-4.30;100.00;95997.65;109139;1276;138953;-86
2024/01/07 10:01:30;;;;;;;20.10;13.70;;;;;;;-4.31;100.00;95995.64;108416;1279;22526;-85
2024/01/07 10:03:57;;;;;;;19.80;12.90;;;;;;;-4.35;100.00;95995.05;108248;1283;138115;-86
2024/01/07 10:06:23;;;;;;;17.70;11.20;;;;;;;-4.39;100.00;95995.70;108310;1282;27419;-85
2024/01/07 10:08:51;;;;;;;11.80;8.70;;;;;;;-4.40;100.00;95999.31;108389;1277;22563;-86
2024/01/07 10:11:17;;;;;;;15.40;10.50;;;;;;;-4.42;100.00;95992.48;108195;1280;138468;-86
2024/01/07 10:13:51;;;;;;;19.20;13.20;;;;;;;-4.41;100.00;95993.42;108407;1280;22532;-86
2024/01/07 10:16:18;;;;;;;18.40;12.20;;;;;;;-4.44;100.00;95993.14;108316;1276;138676;-86
2024/01/07 10:18:45;;;;;;;18.20;11.30;;;;;;;-4.44;100.00;95995.02;108327;1282;24386;-86
2024/01/07 10:21:11;;;;;;;14.00;10.70;;;;;;;-4.46;100.00;95995.66;108276;1280;23263;-86
2024/01/07 10:23:38;;;;;;;13.10;9.50;;;;;;;-4.46;100.00;95999.66;108213;1276;138700;-86
2024/01/07 10:26:05;;;;;;;13.60;10.30;;;;;;;-4.42;100.00;95998.23;108483;1280;22529;-86
2024/01/07 10:28:32;;;;;;;15.00;11.00;;;;;;;-4.42;100.00;96000.30;108190;1273;138783;-86
2024/01/07 10:30:59;;;;;;;16.20;10.50;;;;;;;-4.40;100.00;95996.27;108439;1281;22539;-86
2024/01/07 10:33:25;;;;;;;13.30;10.80;;;;;;;-4.37;100.00;96002.00;108397;1282;24926;-86
2024/01/07 10:35:54;;;;;;;14.20;10.40;;;;;;;-4.37;100.00;95998.28;109336;1281;138424;-86
2024/01/07 10:38:21;;;;;;;10.50;8.40;;;;;;;-4.36;100.00;96000.25;108407;1283;22572;-86
2024/01/07 10:40:49;;;;;;;12.70;10.20;;;;;;;-4.33;100.00;95996.17;108267;1281;137776;-86
2024/01/07 10:43:16;;;;;;;12.60;10.00;;;;;;;-4.31;100.00;95998.04;108340;1282;22536;-86
2024/01/07 10:45:44;;;;;;;14.90;10.10;;;;;;;-4.29;100.00;95993.83;108275;1282;138731;-86
2024/01/07 10:48:11;;;;;;;13.00;9.40;;;;;;;-4.27;100.00;95993.86;108407;1282;25250;-86
2024/01/07 10:50:38;;;;;;;11.10;8.50;;;;;;;-4.25;100.00;95993.24;108417;1277;22656;-87
2024/01/07 10:53:07;;;;;;;12.30;10.10;;;;;;;-4.26;100.00;95999.05;108262;1277;138206;-86
2024/01/07 10:55:36;;;;;;;15.80;10.00;;;;;;;-4.27;100.00;95997.09;108356;1282;24771;-84
2024/01/07 10:58:03;;;;;;;15.70;11.90;;;;;;;-4.25;100.00;95996.40;108347;1281;137903;-84
2024/01/07 11:00:31;;;;;;;14.90;10.80;;;;;;;-4.24;100.00;95998.57;108803;1280;24881;-84
2024/01/07 11:03:10;;;;;;;15.70;10.40;;;;;;;-4.27;100.00;95996.60;108335;1283;23226;-85
2024/01/07 11:05:44;;;;;;;19.70;11.60;;;;;;;-4.32;100.00;95994.70;108376;1281;138951;-84
2024/01/07 11:08:28;;;;;;;14.70;10.70;;;;;;;-4.34;100.00;95998.89;109950;1276;22283;-85